sensor_id;sensor_type;location;lat;lon;timestamp;pressure;altitude;pressure_sealevel;temperature;humidity
61010;BME280;46897;55.340;86.082;2022-11-20T00:02:12;99710.00;;;-8.02;79.93
61010;BME280;46897;55.340;86.082;2022-11-20T00:04:42;99670.13;;;-8.24;79.92
61010;BME280;46897;55.340;86.082;2022-11-20T00:07:11;99575.47;;;-8.86;79.84
61010;BME280;46897;55.340;86.082;2022-11-20T00:09:40;99572.84;;;-8.90;79.96
61010;BME280;46897;55.340;86.082;2022-11-20T00:12:09;99723.69;;;-8.03;79.71
61010;BME280;46897;55.340;86.082;2022-11-20T00:14:38;99721.84;;;-8.09;80.05
61010;BME280;46897;55.340;86.082;2022-11-20T00:17:10;99600.28;;;-8.85;80.12
61010;BME280;46897;55.340;86.082;2022-11-20T00:19:39;99750.38;;;-7.97;80.18
61010;BME280;46897;55.340;86.082;2022-11-20T00:22:08;99591.06;;;-8.77;80.25
61010;BME280;46897;55.340;86.082;2022-11-20T00:24:37;99583.22;;;-8.83;80.48
61010;BME280;46897;55.340;86.082;2022-11-20T00:27:09;99602.31;;;-8.72;79.92
61010;BME280;46897;55.340;86.082;2022-11-20T00:29:38;99668.91;;;-8.42;80.61
61010;BME280;46897;55.340;86.082;2022-11-20T00:32:09;99756.59;;;-7.87;80.63
61010;BME280;46897;55.340;86.082;2022-11-20T00:34:38;99763.47;;;-7.86;80.46
61010;BME280;46897;55.340;86.082;2022-11-20T00:37:07;99648.97;;;-8.54;80.75
61010;BME280;46897;55.340;86.082;2022-11-20T00:39:36;99787.78;;;-8.08;80.65
61010;BME280;46897;55.340;86.082;2022-11-20T00:42:05;99803.03;;;-8.14;81.30
61010;BME280;46897;55.340;86.082;2022-11-20T00:44:34;99870.69;;;-8.14;81.14
61010;BME280;46897;55.340;86.082;2022-11-20T00:47:04;99878.09;;;-8.58;81.65
61010;BME280;46897;55.340;86.082;2022-11-20T00:49:34;99750.03;;;-9.73;81.10
61010;BME280;46897;55.340;86.082;2022-11-20T00:52:04;99877.81;;;-9.27;80.91
61010;BME280;46897;55.340;86.082;2022-11-20T00:54:33;99728.97;;;-10.49;81.47
61010;BME280;46897;55.340;86.082;2022-11-20T00:57:02;99764.47;;;-10.58;80.98
61010;BME280;46897;55.340;86.082;2022-11-20T00:59:31;99726.97;;;-11.07;81.04
61010;BME280;46897;55.340;86.082;2022-11-20T01:02:01;99769.63;;;-11.06;81.81
61010;BME280;46897;55.340;86.082;2022-11-20T01:04:30;99953.44;;;-10.43;81.13
61010;BME280;46897;55.340;86.082;2022-11-20T01:07:00;99940.16;;;-10.57;81.10
61010;BME280;46897;55.340;86.082;2022-11-20T01:09:30;99796.69;;;-11.80;81.24
61010;BME280;46897;55.340;86.082;2022-11-20T01:11:59;99987.28;;;-10.97;81.06
61010;BME280;46897;55.340;86.082;2022-11-20T01:14:28;99926.63;;;-11.44;80.86
61010;BME280;46897;55.340;86.082;2022-11-20T01:16:57;99908.03;;;-11.84;81.27
61010;BME280;46897;55.340;86.082;2022-11-20T01:19:26;99982.16;;;-11.40;80.77
61010;BME280;46897;55.340;86.082;2022-11-20T01:21:55;99857.50;;;-12.35;81.07
61010;BME280;46897;55.340;86.082;2022-11-20T01:24:26;99965.66;;;-11.91;80.65
61010;BME280;46897;55.340;86.082;2022-11-20T01:26:55;100039.97;;;-11.63;80.44
61010;BME280;46897;55.340;86.082;2022-11-20T01:29:25;99944.38;;;-12.51;80.77
61010;BME280;46897;55.340;86.082;2022-11-20T01:31:54;99917.53;;;-12.82;80.52
61010;BME280;46897;55.340;86.082;2022-11-20T01:34:23;99962.16;;;-12.72;80.48
61010;BME280;46897;55.340;86.082;2022-11-20T01:36:53;100044.91;;;-12.46;80.97
61010;BME280;46897;55.340;86.082;2022-11-20T01:39:23;100035.84;;;-12.77;80.37
61010;BME280;46897;55.340;86.082;2022-11-20T01:41:55;99972.97;;;-13.14;80.04
61010;BME280;46897;55.340;86.082;2022-11-20T01:44:58;100083.78;;;-12.88;79.17
61010;BME280;46897;55.340;86.082;2022-11-20T01:47:30;99991.75;;;-13.66;78.63
61010;BME280;46897;55.340;86.082;2022-11-20T01:50:05;99973.50;;;-14.09;78.75
61010;BME280;46897;55.340;86.082;2022-11-20T01:52:39;100091.91;;;-13.49;78.51
61010;BME280;46897;55.340;86.082;2022-11-20T01:55:14;100180.00;;;-13.36;78.23
61010;BME280;46897;55.340;86.082;2022-11-20T01:57:45;100000.56;;;-14.44;77.82
61010;BME280;46897;55.340;86.082;2022-11-20T02:00:18;100015.09;;;-14.74;78.20
61010;BME280;46897;55.340;86.082;2022-11-20T02:02:50;100003.31;;;-14.89;78.41
61010;BME280;46897;55.340;86.082;2022-11-20T02:05:24;100087.06;;;-14.59;78.41
61010;BME280;46897;55.340;86.082;2022-11-20T02:07:56;100133.28;;;-14.50;78.41
61010;BME280;46897;55.340;86.082;2022-11-20T02:10:27;100116.16;;;-15.00;78.47
61010;BME280;46897;55.340;86.082;2022-11-20T02:12:59;100223.75;;;-14.38;78.50
61010;BME280;46897;55.340;86.082;2022-11-20T02:15:45;100073.34;;;-15.53;78.42
61010;BME280;46897;55.340;86.082;2022-11-20T02:18:17;100114.50;;;-15.44;78.68
61010;BME280;46897;55.340;86.082;2022-11-20T02:20:49;100048.28;;;-16.21;79.26
61010;BME280;46897;55.340;86.082;2022-11-20T02:23:23;100300.38;;;-14.92;79.54
